Time;durP1;ratioP1;P1;durP2;ratioP2;P2;SDS_P1;SDS_P2;PMS_P1;PMS_P2;Temp;Humidity;BMP_temperature;BMP_pressure;BME280_temperature;BME280_humidity;BME280_pressure;Samples;Min_cycle;Max_cycle;Signal;HPM_P1;HPM_P2
2022/04/08 00:01:25;;;;;;;3.95;1.00;;;5.80;99.90;;;;;;6162170;23;20012;-80
2022/04/08 00:03:52;;;;;;;6.07;1.73;;;5.80;99.90;;;;;;6162553;23;20020;-80
2022/04/08 00:06:18;;;;;;;8.02;0.90;;;5.80;99.90;;;;;;6162682;23;20501;-80
2022/04/08 00:08:45;;;;;;;3.80;0.60;;;5.80;99.90;;;;;;6163268;23;20008;-80
2022/04/08 00:11:11;;;;;;;3.67;0.98;;;5.80;99.90;;;;;;6188348;23;20016;-79
2022/04/08 00:13:36;;;;;;;7.65;1.55;;;5.80;99.90;;;;;;6188552;23;20027;-80
2022/04/08 00:16:02;;;;;;;1.70;0.85;;;5.80;99.90;;;;;;6163217;23;20024;-80
2022/04/08 00:18:29;;;;;;;6.13;0.73;;;5.80;99.90;;;;;;6163211;23;20147;-79
2022/04/08 00:20:54;;;;;;;4.65;0.95;;;5.70;99.90;;;;;;6188255;23;20021;-80
2022/04/08 00:23:20;;;;;;;8.55;0.80;;;5.70;99.90;;;;;;6187610;23;20334;-80
2022/04/08 00:25:45;;;;;;;5.47;0.68;;;5.70;99.90;;;;;;6163544;23;20012;-82
2022/04/08 00:28:11;;;;;;;7.00;1.58;;;5.70;99.90;;;;;;6163887;23;20015;-83
2022/04/08 00:30:36;;;;;;;2.67;0.80;;;5.70;99.90;;;;;;6188259;23;20087;-82
2022/04/08 00:33:02;;;;;;;1.52;0.70;;;5.70;99.90;;;;;;6189061;23;20043;-83
2022/04/08 00:35:28;;;;;;;4.55;0.70;;;5.70;99.90;;;;;;6163887;23;20047;-81
2022/04/08 00:37:53;;;;;;;3.75;0.80;;;5.70;99.90;;;;;;6188742;23;20023;-84
2022/04/08 00:40:19;;;;;;;1.92;0.47;;;5.70;99.90;;;;;;6189476;23;20019;-84
2022/04/08 00:42:44;;;;;;;1.55;0.60;;;5.60;99.90;;;;;;6189358;23;20012;-83
2022/04/08 00:45:10;;;;;;;5.78;0.90;;;5.60;99.90;;;;;;6188372;23;20376;-83
2022/04/08 00:47:44;;;;;;;1.33;0.50;;;5.50;99.90;;;;;;6163947;23;20095;-83
2022/04/08 00:50:11;;;;;;;0.60;0.50;;;5.50;99.90;;;;;;6162912;23;20009;-82
2022/04/08 00:52:40;;;;;;;2.00;0.40;;;5.30;99.90;;;;;;6188078;23;20100;-82
2022/04/08 00:55:06;;;;;;;0.80;0.52;;;5.30;99.90;;;;;;6163955;23;20017;-83
2022/04/08 00:57:32;;;;;;;1.65;0.40;;;5.30;99.90;;;;;;6188809;23;20091;-82
2022/04/08 01:00:04;;;;;;;3.35;0.55;;;5.30;99.90;;;;;;6189282;23;20024;-82
2022/04/08 01:02:30;;;;;;;2.17;0.68;;;5.20;99.90;;;;;;6190414;23;20411;-82
2022/04/08 01:04:55;;;;;;;1.33;0.50;;;5.30;99.90;;;;;;6188690;23;20008;-82
2022/04/08 01:07:22;;;;;;;0.77;0.45;;;5.20;99.90;;;;;;6164520;23;20017;-82
2022/04/08 01:09:48;;;;;;;2.67;0.55;;;5.20;99.90;;;;;;6189080;23;20012;-82
2022/04/08 01:12:14;;;;;;;2.50;0.63;;;5.20;99.90;;;;;;6190592;23;20068;-82
2022/04/08 01:14:39;;;;;;;5.43;0.77;;;5.10;99.90;;;;;;6190200;23;20166;-82
2022/04/08 01:17:05;;;;;;;0.95;0.65;;;5.10;99.90;;;;;;6190478;23;20016;-81
2022/04/08 01:19:30;;;;;;;2.95;0.43;;;5.00;99.90;;;;;;6191090;23;20013;-83
2022/04/08 01:21:56;;;;;;;3.65;1.08;;;5.00;99.90;;;;;;6190140;23;20453;-82
2022/04/08 01:24:23;;;;;;;3.30;0.65;;;4.90;99.90;;;;;;6166165;23;20009;-82
2022/04/08 01:26:51;;;;;;;5.20;1.05;;;4.80;99.90;;;;;;6189440;23;20009;-82
2022/04/08 01:29:17;;;;;;;2.10;0.60;;;4.80;99.90;;;;;;6191604;23;20015;-82
2022/04/08 01:31:45;;;;;;;3.13;0.95;;;4.70;99.90;;;;;;6190182;23;20354;-82
2022/04/08 01:34:11;;;;;;;5.00;0.63;;;4.70;99.90;;;;;;6192198;23;20016;-83
2022/04/08 01:36:37;;;;;;;5.00;0.57;;;4.60;99.90;;;;;;6166384;23;20009;-82
2022/04/08 01:39:03;;;;;;;5.97;1.13;;;4.60;99.90;;;;;;6192562;23;20016;-83
2022/04/08 01:41:31;;;;;;;4.38;0.70;;;4.60;99.90;;;;;;6190551;23;20013;-82
2022/04/08 01:43:56;;;;;;;5.78;1.52;;;4.60;99.90;;;;;;6190224;23;20454;-83
2022/04/08 01:46:22;;;;;;;6.55;1.25;;;4.60;99.90;;;;;;6165399;23;20013;-83
2022/04/08 01:48:51;;;;;;;7.43;1.10;;;4.50;99.90;;;;;;6191419;23;20017;-83
2022/04/08 01:51:16;;;;;;;3.47;0.95;;;4.50;99.90;;;;;;6218676;23;20012;-83
2022/04/08 01:53:42;;;;;;;4.10;0.93;;;4.50;99.90;;;;;;6191281;23;20023;-83
2022/04/08 01:56:07;;;;;;;4.97;0.90;;;4.50;99.90;;;;;;6169319;23;20119;-83
2022/04/08 01:58:33;;;;;;;5.95;1.27;;;4.40;99.90;;;;;;6166734;23;20012;-82
2022/04/08 02:00:59;;;;;;;2.65;0.85;;;4.30;99.90;;;;;;6164889;23;20091;-83
2022/04/08 02:03:25;;;;;;;5.50;1.25;;;4.30;99.90;;;;;;6189949;23;20063;-82
2022/04/08 02:05:51;;;;;;;9.88;1.55;;;4.20;99.90;;;;;;6190488;23;20024;-82
2022/04/08 02:08:17;;;;;;;8.38;0.75;;;4.10;99.90;;;;;;6190852;23;20646;-83
2022/04/08 02:10:42;;;;;;;10.30;1.00;;;4.10;99.90;;;;;;6190813;23;20462;-83
2022/04/08 02:13:08;;;;;;;4.28;0.63;;;4.00;99.90;;;;;;6193031;23;20066;-83
2022/04/08 02:15:34;;;;;;;4.88;0.90;;;4.00;99.90;;;;;;6169246;23;20063;-82
2022/04/08 02:18:04;;;;;;;9.57;1.42;;;4.00;99.90;;;;;;6194217;23;20023;-82
2022/04/08 02:20:30;;;;;;;7.65;1.05;;;3.90;99.90;;;;;;6194009;23;20012;-82
2022/04/08 02:22:58;;;;;;;4.43;0.88;;;3.90;99.90;;;;;;6194232;23;20158;-82
2022/04/08 02:25:25;;;;;;;4.55;1.00;;;3.80;99.90;;;;;;6193115;23;20019;-82
2022/04/08 02:27:51;;;;;;;6.75;1.02;;;3.80;99.90;;;;;;6170646;23;20446;-82
2022/04/08 02:30:17;;;;;;;7.68;1.23;;;3.70;99.90;;;;;;6196542;23;20112;-82
2022/04/08 02:32:42;;;;;;;6.88;1.13;;;3.80;99.90;;;;;;6170989;23;20484;-82
2022/04/08 02:35:08;;;;;;;14.00;1.48;;;3.80;99.90;;;;;;6195636;23;20017;-82
2022/04/08 02:37:33;;;;;;;12.43;1.38;;;3.90;99.90;;;;;;6193236;23;20012;-82
2022/04/08 02:39:59;;;;;;;4.13;1.83;;;3.90;99.90;;;;;;6205433;23;20009;-82
2022/04/08 02:42:25;;;;;;;1.67;0.60;;;4.00;99.90;;;;;;6206423;23;20031;-84
2022/04/08 02:44:50;;;;;;;4.10;0.88;;;4.10;99.90;;;;;;6171032;23;20009;-83
2022/04/08 02:47:16;;;;;;;4.95;1.05;;;4.20;99.90;;;;;;6188537;23;20008;-83
2022/04/08 02:49:41;;;;;;;4.78;1.17;;;4.20;99.90;;;;;;6163097;23;20017;-83
2022/04/08 02:52:07;;;;;;;4.35;1.17;;;4.20;99.90;;;;;;6188607;23;20012;-82
2022/04/08 02:54:33;;;;;;;4.13;0.70;;;4.20;99.90;;;;;;6188571;23;20087;-82
2022/04/08 02:56:58;;;;;;;8.98;1.95;;;4.10;99.90;;;;;;6188479;23;20292;-82
2022/04/08 02:59:24;;;;;;;4.13;0.90;;;4.10;99.90;;;;;;6163939;23;20019;-83
2022/04/08 03:01:49;;;;;;;1.63;0.60;;;4.10;99.90;;;;;;6163734;23;20017;-83
2022/04/08 03:04:15;;;;;;;4.35;0.85;;;4.00;99.90;;;;;;6188943;23;20044;-83
2022/04/08 03:06:40;;;;;;;9.65;1.13;;;4.00;99.90;;;;;;6164363;23;20084;-82
2022/04/08 03:09:06;;;;;;;7.55;1.67;;;3.90;99.90;;;;;;6188603;23;20062;-81
2022/04/08 03:11:32;;;;;;;9.55;1.38;;;3.80;99.90;;;;;;6164165;23;20059;-81
2022/04/08 03:13:59;;;;;;;7.88;0.85;;;3.80;99.90;;;;;;6188712;23;20469;-82
2022/04/08 03:16:25;;;;;;;5.55;0.82;;;3.80;99.90;;;;;;6164530;23;20605;-82
2022/04/08 03:18:50;;;;;;;5.53;0.90;;;3.70;99.90;;;;;;6164335;23;20068;-82
2022/04/08 03:21:16;;;;;;;2.42;0.68;;;3.70;99.90;;;;;;6215439;23;20043;-82
2022/04/08 03:23:43;;;;;;;4.68;1.15;;;3.70;99.90;;;;;;6188010;23;20016;-82
2022/04/08 03:26:08;;;;;;;6.45;1.73;;;3.70;99.90;;;;;;6188878;23;20013;-82
2022/04/08 03:28:34;;;;;;;6.07;1.08;;;3.70;99.90;;;;;;6189362;23;20034;-82
2022/04/08 03:31:01;;;;;;;7.35;1.05;;;3.60;99.90;;;;;;6164871;23;20035;-82
2022/04/08 03:33:27;;;;;;;2.55;0.73;;;3.70;99.90;;;;;;6189147;23;20027;-82
2022/04/08 03:35:52;;;;;;;6.25;1.20;;;3.70;99.90;;;;;;6164583;23;20012;-82
2022/04/08 03:38:18;;;;;;;5.68;1.02;;;3.70;99.90;;;;;;6191694;23;20044;-82
2022/04/08 03:40:43;;;;;;;4.57;0.77;;;3.80;99.90;;;;;;6190086;23;20017;-83
2022/04/08 03:43:09;;;;;;;7.55;1.77;;;3.70;99.90;;;;;;6164326;23;20012;-83
2022/04/08 03:45:34;;;;;;;10.73;1.55;;;3.70;99.90;;;;;;6195651;23;20009;-84
2022/04/08 03:48:00;;;;;;;5.43;1.67;;;3.70;99.90;;;;;;6194740;23;20012;-83
2022/04/08 03:50:25;;;;;;;4.50;1.20;;;3.70;99.90;;;;;;6192577;23;20350;-84
2022/04/08 03:52:51;;;;;;;5.20;1.20;;;3.60;99.90;;;;;;6192015;23;20019;-83
2022/04/08 03:55:17;;;;;;;6.93;1.10;;;3.60;99.90;;;;;;6193082;23;20017;-84
2022/04/08 03:57:42;;;;;;;6.10;0.95;;;3.50;99.90;;;;;;6167236;23;20096;-83
2022/04/08 04:00:09;;;;;;;5.72;1.70;;;3.50;99.90;;;;;;6191592;23;20021;-83
2022/04/08 04:02:35;;;;;;;2.65;0.98;;;3.50;99.90;;;;;;6193957;23;20044;-83
2022/04/08 04:05:02;;;;;;;11.27;1.67;;;3.50;99.90;;;;;;6193448;23;20068;-83
2022/04/08 04:07:28;;;;;;;10.63;2.25;;;3.50;99.90;;;;;;6193196;23;20335;-83
2022/04/08 04:09:53;;;;;;;3.75;0.95;;;3.40;99.90;;;;;;6167358;23;20012;-84
2022/04/08 04:12:19;;;;;;;9.40;1.60;;;3.40;99.90;;;;;;6195766;23;20448;-83
2022/04/08 04:14:45;;;;;;;11.90;1.38;;;3.40;99.90;;;;;;6196797;23;20136;-83
2022/04/08 04:17:10;;;;;;;11.63;1.30;;;3.50;99.90;;;;;;6194005;23;20076;-84
2022/04/08 04:19:36;;;;;;;7.40;1.60;;;3.50;99.90;;;;;;6194027;23;20027;-83
2022/04/08 04:22:02;;;;;;;4.72;1.42;;;3.50;99.90;;;;;;6169331;23;20044;-83
2022/04/08 04:24:27;;;;;;;15.68;1.77;;;3.70;99.90;;;;;;6192002;23;20036;-82
2022/04/08 04:26:53;;;;;;;6.32;1.10;;;3.60;99.90;;;;;;6167113;23;20067;-82
2022/04/08 04:29:19;;;;;;;8.32;1.02;;;3.70;99.90;;;;;;6216603;23;20031;-82
2022/04/08 04:31:44;;;;;;;10.57;1.95;;;3.70;99.90;;;;;;6164743;23;20027;-82
2022/04/08 04:34:10;;;;;;;7.32;1.55;;;3.70;99.90;;;;;;6189228;23;20449;-82
2022/04/08 04:36:35;;;;;;;7.22;1.65;;;3.80;99.90;;;;;;6190209;23;20453;-82
2022/04/08 04:39:01;;;;;;;4.50;1.55;;;3.80;99.90;;;;;;6192077;23;20027;-82
2022/04/08 04:41:26;;;;;;;4.25;1.02;;;3.90;99.90;;;;;;6193297;23;20055;-83
2022/04/08 04:43:52;;;;;;;7.82;1.60;;;4.00;99.90;;;;;;6165730;23;20017;-81
2022/04/08 04:46:17;;;;;;;6.78;1.70;;;4.00;99.90;;;;;;6166027;23;20067;-82
2022/04/08 04:48:43;;;;;;;8.48;1.58;;;4.10;99.90;;;;;;6191822;23;20008;-81
2022/04/08 04:51:11;;;;;;;5.72;1.50;;;4.10;99.90;;;;;;6190832;23;20012;-82
2022/04/08 04:53:37;;;;;;;6.88;1.08;;;4.10;99.90;;;;;;6190457;23;20122;-82
2022/04/08 04:56:02;;;;;;;10.52;1.60;;;4.10;99.90;;;;;;6190604;23;20012;-82
2022/04/08 04:58:28;;;;;;;7.35;1.13;;;4.00;99.90;;;;;;6191357;23;20017;-82
2022/04/08 05:00:53;;;;;;;9.93;1.45;;;4.00;99.90;;;;;;6166244;23;20016;-83
2022/04/08 05:03:20;;;;;;;4.22;1.48;;;3.90;99.90;;;;;;6189595;23;20076;-83
2022/04/08 05:05:45;;;;;;;3.53;1.15;;;3.80;99.90;;;;;;6193036;23;20056;-82
2022/04/08 05:08:11;;;;;;;7.55;1.83;;;3.80;99.90;;;;;;6193145;23;20012;-82
2022/04/08 05:10:36;;;;;;;6.40;1.73;;;3.90;99.90;;;;;;6192133;23;20454;-82
2022/04/08 05:13:03;;;;;;;11.48;1.70;;;3.90;99.90;;;;;;6167974;23;20024;-82
2022/04/08 05:15:29;;;;;;;10.85;1.50;;;3.90;99.90;;;;;;6216490;23;20060;-80
2022/04/08 05:17:55;;;;;;;9.55;2.03;;;4.00;99.90;;;;;;6213554;23;20426;-80
2022/04/08 05:20:21;;;;;;;20.65;5.93;;;4.10;99.90;;;;;;6187014;23;20426;-79
2022/04/08 05:22:46;;;;;;;17.20;4.43;;;4.10;99.90;;;;;;6213874;23;20015;-79
2022/04/08 05:25:12;;;;;;;9.60;2.65;;;4.10;99.90;;;;;;6200228;23;20087;-80
2022/04/08 05:27:39;;;;;;;12.27;1.77;;;4.20;99.90;;;;;;6234725;23;20018;-80
2022/04/08 05:30:15;;;;;;;7.60;1.50;;;4.20;99.90;;;;;;6222498;23;20407;-80
2022/04/08 05:32:41;;;;;;;3.78;1.38;;;4.20;99.90;;;;;;6213500;23;20462;-80
2022/04/08 05:35:07;;;;;;;3.25;1.55;;;4.10;99.90;;;;;;6213179;23;20015;-79
2022/04/08 05:37:38;;;;;;;2.58;1.88;;;4.00;99.90;;;;;;6161695;23;20043;-80
2022/04/08 05:40:04;;;;;;;6.78;1.90;;;3.90;99.90;;;;;;6213194;23;20052;-79
2022/04/08 05:42:29;;;;;;;2.75;1.20;;;3.80;99.90;;;;;;6213310;23;20334;-79
2022/04/08 05:44:55;;;;;;;3.90;1.00;;;3.80;99.90;;;;;;6186213;23;20020;-80
2022/04/08 05:47:20;;;;;;;5.57;1.00;;;3.80;99.90;;;;;;6214297;23;20028;-81
2022/04/08 05:49:46;;;;;;;3.90;1.17;;;3.80;99.90;;;;;;6214888;23;20021;-79
2022/04/08 05:52:12;;;;;;;6.18;1.13;;;3.70;99.90;;;;;;6215037;23;20008;-80
2022/04/08 05:54:37;;;;;;;0.82;0.70;;;3.70;99.90;;;;;;6163466;23;20020;-80
2022/04/08 05:57:03;;;;;;;4.25;0.88;;;3.80;99.90;;;;;;6188080;23;20453;-81
2022/04/08 05:59:29;;;;;;;3.35;1.15;;;3.80;99.90;;;;;;6188156;23;20012;-79
2022/04/08 06:01:54;;;;;;;3.30;0.90;;;3.70;99.90;;;;;;6214677;23;20008;-80
2022/04/08 06:04:21;;;;;;;4.90;1.25;;;3.70;99.90;;;;;;6188218;23;20085;-80
2022/04/08 06:06:46;;;;;;;1.98;0.82;;;3.70;99.90;;;;;;6188490;23;20044;-80
2022/04/08 06:09:12;;;;;;;1.08;0.95;;;3.50;99.90;;;;;;6188893;23;20012;-80
2022/04/08 06:11:38;;;;;;;2.55;0.82;;;3.50;99.90;;;;;;6187918;23;20143;-80
2022/04/08 06:14:03;;;;;;;0.50;0.47;;;3.30;99.90;;;;;;6188394;23;20170;-80
2022/04/08 06:16:29;;;;;;;1.45;0.75;;;3.30;99.90;;;;;;6188333;23;20025;-80
2022/04/08 06:18:55;;;;;;;2.38;1.20;;;3.20;99.90;;;;;;6188300;23;20048;-80
2022/04/08 06:21:21;;;;;;;2.75;0.68;;;3.10;99.90;;;;;;6214726;23;20100;-80
2022/04/08 06:23:47;;;;;;;2.67;1.13;;;3.00;99.90;;;;;;6188174;23;20358;-80
2022/04/08 06:26:14;;;;;;;2.38;0.82;;;3.00;99.90;;;;;;6188140;23;20016;-80
2022/04/08 06:28:40;;;;;;;3.00;0.70;;;3.00;99.90;;;;;;6163674;23;20095;-80
2022/04/08 06:31:06;;;;;;;0.70;0.65;;;3.00;99.90;;;;;;6187735;23;20094;-80
2022/04/08 06:33:31;;;;;;;1.42;0.82;;;3.10;99.90;;;;;;6163634;23;20095;-80
2022/04/08 06:35:59;;;;;;;1.70;0.80;;;3.10;99.90;;;;;;6163097;23;20118;-79
2022/04/08 06:38:24;;;;;;;4.65;0.80;;;3.30;99.90;;;;;;6163245;23;20009;-80
2022/04/08 06:40:50;;;;;;;1.25;1.10;;;3.40;99.90;;;;;;6187972;23;20354;-80
2022/04/08 06:43:15;;;;;;;1.25;0.63;;;3.60;99.90;;;;;;6214555;23;20088;-80
2022/04/08 06:45:41;;;;;;;3.15;0.73;;;3.60;99.90;;;;;;6214794;23;20039;-80
2022/04/08 06:48:07;;;;;;;2.53;0.65;;;3.70;99.90;;;;;;6163702;23;20009;-80
2022/04/08 06:50:33;;;;;;;1.42;0.75;;;3.70;99.90;;;;;;6187874;23;20056;-80
2022/04/08 06:53:02;;;;;;;0.63;0.50;;;3.80;99.90;;;;;;6162837;23;20450;-81
2022/04/08 06:55:28;;;;;;;4.32;1.13;;;3.90;99.90;;;;;;6187885;23;20009;-79
2022/04/08 06:57:54;;;;;;;2.30;0.70;;;3.80;99.90;;;;;;6187576;23;20059;-80
2022/04/08 07:00:21;;;;;;;1.55;0.50;;;3.90;99.90;;;;;;6162861;23;20012;-80
2022/04/08 07:02:46;;;;;;;2.28;0.98;;;4.00;99.90;;;;;;6187017;23;20066;-80
2022/04/08 07:05:12;;;;;;;1.65;0.82;;;4.10;99.90;;;;;;6187684;23;20453;-80
2022/04/08 07:07:38;;;;;;;2.78;0.43;;;4.20;99.90;;;;;;6187398;23;20387;-80
2022/04/08 07:10:05;;;;;;;3.15;0.60;;;4.30;99.90;;;;;;6163269;23;20372;-80
2022/04/08 07:12:31;;;;;;;0.98;0.57;;;4.50;99.90;;;;;;6163561;23;20020;-79
2022/04/08 07:14:57;;;;;;;1.90;1.00;;;4.70;99.90;;;;;;6215184;23;20013;-80
2022/04/08 07:17:34;;;;;;;4.32;1.00;;;4.90;99.90;;;;;;6215294;23;20480;-80
2022/04/08 07:20:00;;;;;;;2.65;0.95;;;4.90;99.90;;;;;;6188633;23;20066;-79
2022/04/08 07:22:26;;;;;;;3.38;0.70;;;5.10;99.90;;;;;;6188137;23;20111;-79
2022/04/08 07:24:53;;;;;;;4.05;0.90;;;5.20;99.90;;;;;;6188254;23;20079;-79
2022/04/08 07:27:20;;;;;;;3.70;0.77;;;5.40;99.90;;;;;;6188655;23;20009;-79
2022/04/08 07:29:46;;;;;;;5.43;0.88;;;5.40;99.90;;;;;;6189115;23;20020;-80
2022/04/08 07:32:12;;;;;;;3.65;1.60;;;5.40;99.90;;;;;;6217493;23;20012;-79
2022/04/08 07:34:38;;;;;;;2.70;1.15;;;5.50;99.90;;;;;;6216685;23;20074;-79
2022/04/08 07:37:04;;;;;;;5.00;1.02;;;5.60;99.90;;;;;;6217549;23;20013;-80
2022/04/08 07:39:30;;;;;;;4.80;0.82;;;5.60;99.90;;;;;;6192078;23;20193;-79
2022/04/08 07:41:56;;;;;;;4.13;1.80;;;5.40;99.90;;;;;;6192201;23;20013;-79
2022/04/08 07:44:22;;;;;;;1.80;1.10;;;5.50;99.90;;;;;;6166948;23;20023;-80
2022/04/08 07:46:47;;;;;;;6.03;3.40;;;5.30;99.90;;;;;;6219140;23;20346;-79
2022/04/08 07:49:13;;;;;;;1.05;1.00;;;5.00;99.90;;;;;;6191487;23;20055;-79
2022/04/08 07:51:38;;;;;;;2.25;0.90;;;5.10;99.90;;;;;;6190229;23;20013;-80
2022/04/08 07:54:21;;;;;;;1.20;1.00;;;5.00;99.90;;;;;;6198780;23;20021;-82
2022/04/08 07:57:12;;;;;;;3.08;0.80;;;4.80;99.90;;;;;;6162033;22;20027;-79
2022/04/08 07:59:40;;;;;;;3.03;1.20;;;4.80;99.90;;;;;;6223060;23;20082;-83
2022/04/08 08:02:21;;;;;;;6.82;1.40;;;4.60;99.90;;;;;;6230068;23;20015;-84
2022/04/08 08:05:03;;;;;;;3.85;1.55;;;4.60;99.90;;;;;;6248958;23;20016;-79
2022/04/08 08:07:28;;;;;;;8.73;3.33;;;4.50;99.90;;;;;;6212937;23;20051;-78
2022/04/08 08:09:54;;;;;;;7.22;1.95;;;4.30;99.90;;;;;;6188909;23;20051;-80
2022/04/08 08:12:19;;;;;;;6.50;1.42;;;4.30;99.90;;;;;;6189863;23;20393;-80
2022/04/08 08:14:45;;;;;;;3.15;1.38;;;4.30;99.90;;;;;;6188156;23;20016;-78
2022/04/08 08:17:10;;;;;;;4.32;1.45;;;4.40;99.90;;;;;;6164093;23;20016;-79
2022/04/08 08:19:37;;;;;;;5.10;1.92;;;4.40;99.90;;;;;;6188926;23;20019;-78
2022/04/08 08:22:03;;;;;;;9.48;2.25;;;4.50;99.90;;;;;;6189058;23;20017;-79
2022/04/08 08:24:29;;;;;;;2.75;1.92;;;4.70;99.90;;;;;;6164183;23;20496;-79
2022/04/08 08:26:55;;;;;;;8.20;2.00;;;4.90;99.90;;;;;;6189855;23;20013;-79
2022/04/08 08:29:20;;;;;;;5.82;1.92;;;5.10;99.90;;;;;;6165417;23;20079;-79
2022/04/08 08:31:46;;;;;;;2.90;1.27;;;5.20;99.90;;;;;;6189764;23;20036;-80
2022/04/08 08:34:11;;;;;;;4.50;1.52;;;5.40;99.90;;;;;;6165689;23;20450;-79
2022/04/08 08:36:37;;;;;;;8.75;1.80;;;5.70;99.90;;;;;;6189506;23;20016;-79
2022/04/08 08:39:02;;;;;;;2.63;1.10;;;6.00;99.90;;;;;;6188996;23;20020;-81
2022/04/08 08:41:30;;;;;;;2.13;1.23;;;5.90;99.90;;;;;;6189345;23;20017;-81
2022/04/08 08:43:55;;;;;;;5.03;1.05;;;5.80;99.90;;;;;;6189790;23;20091;-81
2022/04/08 08:46:21;;;;;;;2.05;0.90;;;5.70;99.90;;;;;;6188604;23;20055;-80
2022/04/08 08:48:50;;;;;;;4.93;1.35;;;5.60;99.90;;;;;;6164989;23;20019;-80
2022/04/08 08:51:16;;;;;;;5.57;1.17;;;5.80;99.90;;;;;;6189520;23;20013;-80
2022/04/08 08:53:43;;;;;;;3.67;1.38;;;6.50;99.90;;;;;;6189575;23;20008;-80
2022/04/08 08:56:09;;;;;;;10.00;2.38;;;7.40;99.90;;;;;;6189676;23;20035;-80
2022/04/08 08:58:36;;;;;;;6.30;1.23;;;8.00;99.90;;;;;;6191478;23;20016;-79
2022/04/08 09:01:02;;;;;;;5.53;1.20;;;8.40;99.90;;;;;;6167134;23;20009;-80
2022/04/08 09:03:30;;;;;;;4.80;1.65;;;8.50;99.90;;;;;;6166503;23;20016;-81
2022/04/08 09:06:17;;;;;;;4.47;1.08;;;8.20;99.90;;;;;;6166028;23;20013;-80
2022/04/08 09:08:55;;;;;;;4.90;1.20;;;8.40;99.90;;;;;;6163858;23;20330;-80
2022/04/08 09:11:27;;;;;;;3.83;1.40;;;8.60;99.90;;;;;;6187978;23;20023;-80
2022/04/08 09:14:00;;;;;;;5.15;1.38;;;8.50;99.90;;;;;;6163399;23;20370;-79
2022/04/08 09:16:29;;;;;;;8.30;1.80;;;8.40;99.90;;;;;;6188435;23;20450;-80
2022/04/08 09:18:55;;;;;;;7.60;1.27;;;8.50;99.90;;;;;;6163418;23;20008;-80
2022/04/08 09:21:25;;;;;;;4.47;1.20;;;9.10;99.90;;;;;;6162101;23;20110;-80
2022/04/08 09:23:52;;;;;;;27.05;13.48;;;9.50;99.90;;;;;;6187502;23;20530;-80
2022/04/08 09:26:19;;;;;;;5.75;2.38;;;9.60;99.90;;;;;;6162018;23;20024;-80
2022/04/08 09:28:45;;;;;;;4.10;1.60;;;9.50;99.90;;;;;;6187623;23;20023;-79
2022/04/08 09:31:21;;;;;;;6.43;1.67;;;9.10;99.90;;;;;;6187499;23;20079;-79
2022/04/08 09:33:53;;;;;;;8.40;1.85;;;9.00;99.90;;;;;;6163113;23;20055;-79
2022/04/08 09:36:30;;;;;;;7.00;2.15;;;8.80;99.90;;;;;;6187623;23;20016;-79
2022/04/08 09:38:56;;;;;;;6.75;1.67;;;8.80;99.90;;;;;;6214843;23;20063;-79
2022/04/08 09:41:38;;;;;;;9.00;2.25;;;8.80;99.90;;;;;;6186708;23;20346;-79
2022/04/08 09:44:04;;;;;;;7.60;1.98;;;8.80;99.90;;;;;;6187657;23;20044;-79
2022/04/08 09:46:30;;;;;;;5.38;1.92;;;8.70;99.90;;;;;;6161773;23;20005;-79
2022/04/08 09:48:55;;;;;;;6.53;1.98;;;8.60;99.90;;;;;;6162772;23;20450;-79
2022/04/08 09:51:21;;;;;;;6.63;1.80;;;8.70;99.90;;;;;;6187468;23;20812;-79
2022/04/08 09:53:57;;;;;;;6.55;1.90;;;9.20;99.90;;;;;;6187739;23;20556;-79
2022/04/08 09:56:24;;;;;;;7.85;2.30;;;9.70;99.90;;;;;;6165321;23;20016;-79
2022/04/08 09:59:02;;;;;;;9.07;1.50;;;9.80;99.90;;;;;;6199192;23;20060;-79
2022/04/08 10:01:28;;;;;;;6.63;1.48;;;9.90;99.90;;;;;;6206834;23;20016;-78
2022/04/08 10:03:54;;;;;;;2.53;1.33;;;9.90;99.90;;;;;;6204711;23;20017;-78
2022/04/08 10:06:21;;;;;;;5.57;1.27;;;10.00;99.90;;;;;;6174706;23;20060;-79
2022/04/08 10:08:48;;;;;;;7.20;2.08;;;9.90;99.90;;;;;;6164501;23;20012;-79
2022/04/08 10:11:23;;;;;;;4.60;1.67;;;9.80;99.90;;;;;;6163345;23;20070;-79
2022/04/08 10:14:09;;;;;;;6.80;1.30;;;9.60;99.90;;;;;;6215284;23;20023;-79
2022/04/08 10:16:40;;;;;;;3.67;1.27;;;9.50;99.90;;;;;;6187187;23;20076;-79
2022/04/08 10:26:58;;;;;;;2.83;1.05;;;9.70;99.90;;;;;;6129989;23;20114;-79
2022/04/08 10:29:25;;;;;;;5.18;1.10;;;9.80;99.90;;;;;;6079451;23;20018;-80
2022/04/08 10:31:58;;;;;;;7.10;1.40;;;9.80;99.90;;;;;;6176200;23;20016;-79
2022/04/08 10:34:25;;;;;;;3.80;1.00;;;10.00;99.90;;;;;;6197488;23;20023;-80
2022/04/08 10:36:52;;;;;;;5.18;1.25;;;10.10;99.90;;;;;;6198543;23;20345;-78
2022/04/08 10:39:22;;;;;;;7.13;1.27;;;10.20;99.90;;;;;;6173807;23;20012;-79
2022/04/08 10:41:50;;;;;;;5.90;1.80;;;10.40;99.90;;;;;;6197262;23;20017;-79
2022/04/08 10:44:17;;;;;;;7.22;1.52;;;10.40;99.90;;;;;;6197639;23;20013;-79
2022/04/08 10:46:52;;;;;;;15.60;1.60;;;10.40;99.90;;;;;;6197394;23;20015;-79
2022/04/08 10:49:18;;;;;;;3.97;1.38;;;10.20;99.90;;;;;;6196992;23;20012;-79
2022/04/08 10:51:46;;;;;;;10.95;1.27;;;10.10;99.90;;;;;;6197004;23;20005;-79
2022/04/08 10:54:11;;;;;;;9.98;2.17;;;10.00;99.90;;;;;;6197531;23;20024;-80
2022/04/08 10:56:37;;;;;;;5.03;1.33;;;9.90;99.90;;;;;;6192232;23;20346;-79
2022/04/08 10:59:04;;;;;;;10.02;1.52;;;9.80;99.90;;;;;;6167078;23;20100;-78
2022/04/08 11:01:34;;;;;;;7.78;1.40;;;9.90;99.90;;;;;;6192059;23;20013;-79
2022/04/08 11:04:03;;;;;;;3.22;1.15;;;9.80;99.90;;;;;;6165911;23;20148;-79
2022/04/08 11:06:33;;;;;;;7.05;1.40;;;9.70;99.90;;;;;;6190084;23;20013;-79
2022/04/08 11:09:14;;;;;;;1.23;0.95;;;9.60;99.90;;;;;;6165436;23;20095;-79
2022/04/08 11:11:43;;;;;;;7.70;1.08;;;9.40;99.90;;;;;;6190317;23;20009;-80
2022/04/08 11:14:10;;;;;;;11.13;1.70;;;9.20;99.90;;;;;;6190571;23;20020;-78
2022/04/08 11:16:40;;;;;;;5.75;2.25;;;9.20;99.90;;;;;;6189373;23;20021;-79
2022/04/08 11:19:11;;;;;;;7.28;1.90;;;9.20;99.90;;;;;;6189588;23;20020;-79
2022/04/08 11:21:38;;;;;;;5.03;1.30;;;9.40;99.90;;;;;;6165250;23;20020;-79
2022/04/08 11:24:13;;;;;;;6.30;1.63;;;9.50;99.90;;;;;;6165353;23;20044;-79
2022/04/08 11:26:50;;;;;;;6.35;1.60;;;9.50;99.90;;;;;;6190854;23;20024;-78
2022/04/08 11:29:24;;;;;;;4.18;1.85;;;9.50;99.90;;;;;;6165964;23;20009;-79
2022/04/08 11:32:09;;;;;;;8.38;1.75;;;9.40;99.90;;;;;;6189149;23;20084;-78
2022/04/08 11:34:35;;;;;;;4.20;1.42;;;9.10;99.90;;;;;;6188698;23;20023;-78
2022/04/08 11:37:01;;;;;;;6.35;1.20;;;9.00;99.90;;;;;;6163772;23;20096;-79
2022/04/08 11:39:27;;;;;;;11.80;1.90;;;8.90;99.90;;;;;;6189013;23;20413;-79
2022/04/08 11:41:56;;;;;;;7.05;1.67;;;9.10;99.90;;;;;;6164454;23;20013;-78
2022/04/08 11:44:23;;;;;;;6.55;1.50;;;9.30;99.90;;;;;;6188382;23;20513;-78
2022/04/08 11:46:49;;;;;;;3.70;1.35;;;9.50;99.90;;;;;;6140237;23;20039;-79
2022/04/08 11:49:16;;;;;;;5.22;1.50;;;9.60;99.90;;;;;;6188141;23;20017;-78
2022/04/08 11:51:42;;;;;;;5.95;2.10;;;9.30;99.90;;;;;;6187900;23;20016;-78
2022/04/08 11:54:07;;;;;;;2.95;1.30;;;8.90;99.90;;;;;;6187260;23;20021;-78
2022/04/08 11:56:33;;;;;;;17.17;7.78;;;8.50;99.90;;;;;;6167154;23;20052;-78
2022/04/08 11:59:01;;;;;;;8.32;4.15;;;8.10;99.90;;;;;;6192218;23;20023;-77
2022/04/08 12:01:34;;;;;;;8.48;2.97;;;7.80;99.90;;;;;;6218233;23;20031;-77
2022/04/08 12:04:02;;;;;;;3.65;1.40;;;7.70;99.90;;;;;;6218046;23;20088;-79
2022/04/08 12:06:38;;;;;;;4.25;1.63;;;7.60;99.90;;;;;;6191934;23;20020;-78
2022/04/08 12:09:05;;;;;;;5.88;1.85;;;7.60;99.90;;;;;;6191476;23;20017;-79
2022/04/08 12:11:34;;;;;;;3.92;1.17;;;7.70;99.90;;;;;;6190593;23;20012;-77
2022/04/08 12:14:00;;;;;;;4.55;1.30;;;7.90;99.90;;;;;;6191247;23;20044;-78
2022/04/08 12:16:32;;;;;;;5.40;1.33;;;8.10;99.90;;;;;;6194104;23;20484;-78
2022/04/08 12:19:16;;;;;;;9.48;2.10;;;8.40;99.90;;;;;;6169826;23;20024;-79
2022/04/08 12:21:52;;;;;;;2.58;1.40;;;8.80;99.90;;;;;;6220167;23;20052;-78
2022/04/08 12:24:18;;;;;;;7.78;1.98;;;9.10;99.90;;;;;;6219330;23;20020;-78
2022/04/08 12:26:44;;;;;;;4.68;1.83;;;9.40;99.90;;;;;;6169979;23;20362;-79
2022/04/08 12:29:14;;;;;;;3.83;1.45;;;9.70;99.90;;;;;;6164729;23;20512;-78
2022/04/08 12:31:45;;;;;;;8.27;2.10;;;10.00;99.90;;;;;;6163552;23;20012;-79
2022/04/08 12:34:11;;;;;;;5.25;1.80;;;10.30;99.90;;;;;;6188561;23;20013;-79
2022/04/08 12:36:36;;;;;;;13.25;2.95;;;10.50;99.90;;;;;;6188525;23;20012;-79
2022/04/08 12:39:02;;;;;;;9.43;2.28;;;10.70;99.90;;;;;;6189406;23;20019;-79
2022/04/08 12:41:27;;;;;;;7.53;1.70;;;10.80;99.90;;;;;;6164374;23;20450;-79
2022/04/08 12:43:54;;;;;;;11.23;2.03;;;11.00;99.90;;;;;;6191403;23;20025;-80
2022/04/08 12:46:21;;;;;;;2.92;1.65;;;11.20;99.90;;;;;;6188879;23;20019;-80
2022/04/08 12:48:47;;;;;;;6.18;1.45;;;11.30;99.90;;;;;;6190548;23;20090;-81
2022/04/08 12:51:13;;;;;;;1.15;0.70;;;11.20;99.90;;;;;;6190592;23;20020;-80
2022/04/08 12:53:38;;;;;;;1.52;0.70;;;11.00;99.90;;;;;;6215492;23;20021;-80
2022/04/08 12:56:04;;;;;;;2.45;1.20;;;10.80;99.90;;;;;;6214464;23;20013;-80
2022/04/08 12:58:30;;;;;;;2.72;0.70;;;10.60;99.90;;;;;;6215562;23;20019;-79
2022/04/08 13:00:57;;;;;;;2.20;1.25;;;10.50;99.90;;;;;;6216768;23;20013;-80
2022/04/08 13:03:22;;;;;;;4.30;0.93;;;10.40;99.90;;;;;;6213765;23;20009;-79